Time;durP1;ratioP1;P1;durP2;ratioP2;P2;SDS_P1;SDS_P2;PMS_P1;PMS_P2;Temp;Humidity;BMP_temperature;BMP_pressure;BME280_temperature;BME280_humidity;BME280_pressure;Samples;Min_cycle;Max_cycle;Signal;HPM_P1;HPM_P2
2022/06/22 00:00:04;;;;;;;;;;;29.60;42.40;;;;;;691460;28;1033;-93
2022/06/22 00:00:26;;;;;;;;;;;29.60;42.20;;;;;;688448;28;1522;-89
2022/06/22 00:00:52;;;;;;;;;;;29.60;42.40;;;;;;688614;28;1328;-95
2022/06/22 00:01:22;;;;;;;;;;;29.60;42.70;;;;;;688914;28;1267;-91
2022/06/22 00:01:49;;;;;;;;;;;29.60;42.40;;;;;;688663;28;861;-92
2022/06/22 00:02:21;;;;;;;;;;;29.60;42.20;;;;;;689197;28;859;-94
2022/06/22 00:02:42;;;;;;;;;;;29.60;42.40;;;;;;691677;28;806;-94
2022/06/22 00:03:05;;;;;;;;;;;29.60;42.20;;;;;;691341;28;1386;-94
2022/06/22 00:03:25;;;;;;;;;;;29.60;42.20;;;;;;691350;28;838;-93
2022/06/22 00:03:48;;;;;;;;;;;29.60;42.30;;;;;;688691;28;917;-95
2022/06/22 00:04:17;;;;;;;;;;;29.50;42.20;;;;;;685959;28;1410;-96
2022/06/22 00:04:42;;;;;;;;;;;29.60;42.30;;;;;;686070;28;912;-91
2022/06/22 00:05:05;;;;;;;;;;;29.50;42.10;;;;;;688528;28;1421;-94
2022/06/22 00:05:33;;;;;;;;;;;29.60;42.00;;;;;;688620;28;1764;-93
2022/06/22 00:05:54;;;;;;;;;;;29.50;42.10;;;;;;691524;28;783;-95
2022/06/22 00:06:36;;;;;;;;;;;29.50;42.70;;;;;;691447;28;1361;-95
2022/06/22 00:07:07;;;;;;;;;;;29.50;42.30;;;;;;691450;28;862;-94
2022/06/22 00:07:33;;;;;;;;;;;29.60;42.00;;;;;;691743;28;841;-94
2022/06/22 00:07:57;;;;;;;;;;;29.60;42.00;;;;;;691651;28;810;-94
2022/06/22 00:08:25;;;;;;;;;;;29.50;41.90;;;;;;691765;28;940;-94
2022/06/22 00:08:51;;;;;;;;;;;29.50;41.70;;;;;;691731;28;916;-96
2022/06/22 00:09:37;;;;;;;;;;;29.50;42.10;;;;;;691804;28;786;-95
2022/06/22 00:10:19;;;;;;;;;;;30.00;42.10;;;;;;690809;28;1532;-95
2022/06/22 00:10:51;;;;;;;;;;;29.60;41.60;;;;;;691734;28;830;-95
2022/06/22 00:11:15;;;;;;;;;;;29.60;41.60;;;;;;691775;28;904;-89
2022/06/22 00:11:43;;;;;;;;;;;29.60;41.50;;;;;;692017;28;775;-96
2022/06/22 00:12:04;;;;;;;;;;;29.60;41.60;;;;;;691833;28;1000;-95
2022/06/22 00:12:26;;;;;;;;;;;29.60;41.50;;;;;;691985;28;942;-95
2022/06/22 00:12:50;;;;;;;;;;;29.60;41.50;;;;;;691847;28;854;-96
2022/06/22 00:13:16;;;;;;;;;;;29.60;41.60;;;;;;691687;28;786;-95
2022/06/22 00:13:37;;;;;;;;;;;29.60;41.30;;;;;;692088;28;866;-95
2022/06/22 00:13:59;;;;;;;;;;;29.60;41.30;;;;;;692210;28;877;-95
2022/06/22 00:14:24;;;;;;;;;;;29.60;41.20;;;;;;691907;28;1674;-95
2022/06/22 00:14:50;;;;;;;;;;;29.60;41.50;;;;;;693014;28;1386;-95
2022/06/22 00:15:29;;;;;;;;;;;29.60;41.50;;;;;;693723;28;1102;-92
2022/06/22 00:16:00;;;;;;;;;;;29.60;41.10;;;;;;693357;28;854;-89
2022/06/22 00:16:30;;;;;;;;;;;29.60;41.20;;;;;;693085;28;912;-94
2022/06/22 00:16:52;;;;;;;;;;;29.60;41.00;;;;;;692875;28;1012;-96
2022/06/22 00:17:21;;;;;;;;;;;29.60;41.10;;;;;;693111;28;1467;-91
2022/06/22 00:17:41;;;;;;;;;;;29.60;41.20;;;;;;693419;28;676;-95
2022/06/22 00:18:03;;;;;;;;;;;29.60;40.90;;;;;;693646;28;1227;-85
2022/06/22 00:18:23;;;;;;;;;;;29.60;41.10;;;;;;694440;28;1083;-87
2022/06/22 00:18:46;;;;;;;;;;;29.60;41.10;;;;;;694440;28;802;-92
2022/06/22 00:19:21;;;;;;;;;;;29.60;41.40;;;;;;691671;28;1437;-92
2022/06/22 00:19:43;;;;;;;;;;;29.60;41.00;;;;;;691915;28;1316;-94
2022/06/22 00:20:14;;;;;;;;;;;29.60;40.80;;;;;;691849;28;945;-90
2022/06/22 00:20:36;;;;;;;;;;;29.60;40.90;;;;;;691415;28;1303;-96
2022/06/22 00:21:00;;;;;;;;;;;29.60;42.00;;;;;;692439;28;1318;-96
2022/06/22 00:21:40;;;;;;;;;;;29.60;40.70;;;;;;693315;28;893;-96
2022/06/22 00:22:01;;;;;;;;;;;29.60;40.80;;;;;;689198;28;874;-94
2022/06/22 00:22:24;;;;;;;;;;;29.60;40.70;;;;;;690525;28;1944;-96
2022/06/22 00:22:48;;;;;;;;;;;29.60;40.90;;;;;;693378;28;877;-96
2022/06/22 00:23:09;;;;;;;;;;;29.60;41.10;;;;;;693799;28;914;-95
2022/06/22 00:23:37;;;;;;;;;;;29.60;40.90;;;;;;694004;28;1052;-94
2022/06/22 00:23:59;;;;;;;;;;;29.60;41.10;;;;;;693065;28;1315;-96
2022/06/22 00:24:23;;;;;;;;;;;29.60;40.80;;;;;;693628;28;799;-95
2022/06/22 00:24:43;;;;;;;;;;;29.60;41.20;;;;;;693489;28;1051;-94
2022/06/22 00:25:19;;;;;;;;;;;29.60;42.50;;;;;;693799;28;922;-92
2022/06/22 00:25:41;;;;;;;;;;;29.60;41.90;;;;;;693786;28;1083;-95
2022/06/22 00:26:05;;;;;;;;;;;29.60;40.90;;;;;;693970;28;1238;-95
2022/06/22 00:26:32;;;;;;;;;;;29.60;40.90;;;;;;690990;28;1419;-90
2022/06/22 00:26:54;;;;;;;;;;;29.60;40.80;;;;;;691113;28;1047;-93
2022/06/22 00:27:18;;;;;;;;;;;29.60;40.60;;;;;;689594;28;1220;-93
2022/06/22 00:27:38;;;;;;;;;;;29.60;40.60;;;;;;689756;28;890;-91
2022/06/22 00:28:23;;;;;;;;;;;29.70;40.80;;;;;;693533;28;890;-92
2022/06/22 00:28:53;;;;;;;;;;;29.60;40.60;;;;;;694175;28;1056;-89
2022/06/22 00:29:13;;;;;;;;;;;29.60;40.70;;;;;;694508;28;1182;-90
2022/06/22 00:29:35;;;;;;;;;;;29.60;40.60;;;;;;693828;28;834;-92
2022/06/22 00:30:01;;;;;;;;;;;29.60;40.60;;;;;;693172;28;1060;-93
2022/06/22 00:30:27;;;;;;;;;;;29.60;40.40;;;;;;692123;28;1452;-91
2022/06/22 00:30:48;;;;;;;;;;;29.60;40.50;;;;;;692311;28;1016;-92
2022/06/22 00:31:21;;;;;;;;;;;29.60;40.70;;;;;;691666;28;783;-92
2022/06/22 00:31:43;;;;;;;;;;;29.70;40.50;;;;;;691469;28;1312;-93
2022/06/22 00:32:22;;;;;;;;;;;29.60;41.00;;;;;;692592;28;1087;-93
2022/06/22 00:33:01;;;;;;;;;;;29.60;40.30;;;;;;690220;28;1413;-95
2022/06/22 00:33:23;;;;;;;;;;;29.60;40.30;;;;;;688946;28;807;-92
2022/06/22 00:34:01;;;;;;;;;;;29.70;40.40;;;;;;691916;28;886;-96
2022/06/22 00:34:23;;;;;;;;;;;29.70;40.50;;;;;;691696;28;886;-91
2022/06/22 00:34:45;;;;;;;;;;;29.70;40.40;;;;;;691711;28;822;-93
2022/06/22 00:35:24;;;;;;;;;;;29.70;40.60;;;;;;691786;28;783;-94
2022/06/22 00:35:50;;;;;;;;;;;29.70;40.40;;;;;;691353;28;1263;-93
2022/06/22 00:36:10;;;;;;;;;;;29.60;40.30;;;;;;691292;28;947;-93
2022/06/22 00:36:34;;;;;;;;;;;29.60;40.20;;;;;;691521;28;795;-89
2022/06/22 00:37:18;;;;;;;;;;;29.60;40.50;;;;;;691586;28;957;-93
2022/06/22 00:37:38;;;;;;;;;;;29.60;40.10;;;;;;687524;28;1111;-94
2022/06/22 00:37:59;;;;;;;;;;;29.60;40.30;;;;;;688870;28;859;-94
2022/06/22 00:38:27;;;;;;;;;;;29.70;40.50;;;;;;688625;28;894;-94
2022/06/22 00:38:47;;;;;;;;;;;29.60;40.20;;;;;;685669;28;1590;-93
2022/06/22 00:39:17;;;;;;;;;;;29.70;40.50;;;;;;685811;28;850;-94
2022/06/22 00:39:40;;;;;;;;;;;29.60;40.30;;;;;;680318;29;1699;-94
2022/06/22 00:40:01;;;;;;;;;;;29.60;40.20;;;;;;680713;29;926;-96
2022/06/22 00:40:22;;;;;;;;;;;29.70;40.60;;;;;;680573;29;1180;-93
2022/06/22 00:40:43;;;;;;;;;;;29.60;40.50;;;;;;682371;29;796;-91
2022/06/22 00:41:12;;;;;;;;;;;29.70;40.70;;;;;;683323;29;819;-94
2022/06/22 00:41:33;;;;;;;;;;;29.60;40.60;;;;;;685143;28;1698;-94
2022/06/22 00:42:21;;;;;;;;;;;29.70;40.90;;;;;;682700;29;1429;-94
2022/06/22 00:42:43;;;;;;;;;;;29.60;40.20;;;;;;683301;29;895;-91
2022/06/22 00:43:04;;;;;;;;;;;29.60;40.20;;;;;;683246;29;1013;-94
2022/06/22 00:43:26;;;;;;;;;;;29.60;40.10;;;;;;682831;29;1088;-95
2022/06/22 00:43:47;;;;;;;;;;;29.60;40.30;;;;;;684807;28;839;-93
2022/06/22 00:44:08;;;;;;;;;;;29.60;40.30;;;;;;685822;28;1351;-92
2022/06/22 00:44:31;;;;;;;;;;;29.60;40.50;;;;;;685784;28;1368;-94
2022/06/22 00:44:52;;;;;;;;;;;29.60;40.60;;;;;;683119;29;1183;-93
2022/06/22 00:45:21;;;;;;;;;;;29.60;40.80;;;;;;683195;29;823;-93
2022/06/22 00:45:42;;;;;;;;;;;29.60;40.60;;;;;;678253;29;1555;-83
2022/06/22 00:46:11;;;;;;;;;;;29.60;40.90;;;;;;677926;29;843;-92
2022/06/22 00:46:33;;;;;;;;;;;29.60;40.70;;;;;;677957;29;1111;-85
2022/06/22 00:47:16;;;;;;;;;;;29.60;40.60;;;;;;677701;29;966;-91
2022/06/22 00:47:39;;;;;;;;;;;29.60;40.90;;;;;;677058;29;1213;-94
2022/06/22 00:48:18;;;;;;;;;;;29.60;40.50;;;;;;678028;29;872;-94
2022/06/22 00:48:39;;;;;;;;;;;29.60;40.40;;;;;;680560;29;1113;-86
2022/06/22 00:49:07;;;;;;;;;;;29.60;40.30;;;;;;681156;29;1062;-89
2022/06/22 00:49:29;;;;;;;;;;;29.60;40.50;;;;;;681252;29;1002;-82
2022/06/22 00:49:49;;;;;;;;;;;29.60;41.10;;;;;;680988;29;1053;-79
2022/06/22 00:50:10;;;;;;;;;;;29.60;40.90;;;;;;680787;29;1018;-80
2022/06/22 00:50:38;;;;;;;;;;;29.60;41.00;;;;;;678019;29;1149;-84
2022/06/22 00:50:58;;;;;;;;;;;29.60;40.30;;;;;;678425;29;1011;-86
2022/06/22 00:51:25;;;;;;;;;;;29.60;40.60;;;;;;678076;29;1276;-82
2022/06/22 00:51:46;;;;;;;;;;;27.90;39.60;;;;;;678478;29;1309;-83
2022/06/22 00:52:08;;;;;;;;;;;29.60;42.10;;;;;;678654;29;848;-83
2022/06/22 00:52:39;;;;;;;;;;;29.60;41.10;;;;;;680860;29;934;-86
2022/06/22 00:53:02;;;;;;;;;;;29.60;40.60;;;;;;680666;29;974;-81
2022/06/22 00:53:28;;;;;;;;;;;29.60;40.40;;;;;;678205;29;1090;-81
2022/06/22 00:53:54;;;;;;;;;;;29.60;40.90;;;;;;678344;29;1069;-88
2022/06/22 00:54:19;;;;;;;;;;;29.60;40.30;;;;;;678236;29;1250;-92
2022/06/22 00:54:40;;;;;;;;;;;29.60;40.70;;;;;;675621;29;1651;-88
2022/06/22 00:55:01;;;;;;;;;;;29.60;42.10;;;;;;677606;29;1596;-85
2022/06/22 00:55:24;;;;;;;;;;;29.50;41.90;;;;;;675193;29;1593;-85
2022/06/22 00:56:23;;;;;;;;;;;29.60;41.10;;;;;;677598;29;1207;-92
2022/06/22 00:56:50;;;;;;;;;;;29.60;41.00;;;;;;667757;29;867;-96
2022/06/22 00:57:13;;;;;;;;;;;29.60;40.80;;;;;;667603;29;836;-94
2022/06/22 00:57:35;;;;;;;;;;;29.50;41.00;;;;;;667698;29;821;-96
2022/06/22 00:58:00;;;;;;;;;;;29.60;41.20;;;;;;667406;29;1185;-89
2022/06/22 00:58:26;;;;;;;;;;;29.60;40.30;;;;;;667546;29;817;-90
2022/06/22 00:58:55;;;;;;;;;;;29.60;40.90;;;;;;667637;29;952;-88
2022/06/22 00:59:16;;;;;;;;;;;29.60;41.00;;;;;;667994;29;1196;-95
2022/06/22 00:59:43;;;;;;;;;;;29.60;40.90;;;;;;667583;29;832;-86
2022/06/22 01:00:05;;;;;;;;;;;29.60;40.80;;;;;;667685;29;1198;-94
2022/06/22 01:00:28;;;;;;;;;;;29.50;40.30;;;;;;667606;29;833;-93
2022/06/22 01:00:59;;;;;;;;;;;29.50;40.90;;;;;;667632;29;1058;-94
2022/06/22 01:01:35;;;;;;;;;;;29.60;41.10;;;;;;667324;29;1353;-96
2022/06/22 01:01:58;;;;;;;;;;;29.60;40.90;;;;;;666138;29;1192;-96
2022/06/22 01:02:24;;;;;;;;;;;29.50;41.00;;;;;;664972;29;1908;-82
2022/06/22 01:02:47;;;;;;;;;;;29.50;41.30;;;;;;667739;29;1157;-87
2022/06/22 01:03:30;;;;;;;;;;;29.50;40.20;;;;;;667621;29;1282;-94
2022/06/22 01:04:12;;;;;;;;;;;29.50;40.20;;;;;;667515;29;805;-91
2022/06/22 01:04:39;;;;;;;;;;;29.50;40.10;;;;;;667724;29;808;-92
2022/06/22 01:05:10;;;;;;;;;;;29.50;41.30;;;;;;667684;29;873;-96
2022/06/22 01:05:36;;;;;;;;;;;29.50;40.80;;;;;;667703;29;1327;-95
2022/06/22 01:06:03;;;;;;;;;;;29.60;40.10;;;;;;667408;29;935;-92
2022/06/22 01:06:30;;;;;;;;;;;29.50;40.50;;;;;;667432;29;1070;-95
2022/06/22 01:06:53;;;;;;;;;;;29.50;40.70;;;;;;667765;29;812;-95
2022/06/22 01:07:14;;;;;;;;;;;29.50;40.10;;;;;;667552;29;908;-96
2022/06/22 01:07:34;;;;;;;;;;;29.50;40.10;;;;;;667649;29;891;-85
2022/06/22 01:08:16;;;;;;;;;;;29.50;40.60;;;;;;667635;29;880;-95
2022/06/22 01:08:42;;;;;;;;;;;29.50;40.50;;;;;;667603;29;908;-95
2022/06/22 01:09:08;;;;;;;;;;;29.50;40.20;;;;;;667409;29;1327;-95
2022/06/22 01:09:28;;;;;;;;;;;29.50;40.20;;;;;;667618;29;983;-93
2022/06/22 01:09:53;;;;;;;;;;;29.40;39.80;;;;;;667553;29;916;-91
2022/06/22 01:10:26;;;;;;;;;;;29.50;40.00;;;;;;667534;29;852;-95
2022/06/22 01:11:02;;;;;;;;;;;29.50;39.80;;;;;;667540;29;876;-93
2022/06/22 01:12:17;;;;;;;;;;;29.50;39.70;;;;;;667552;29;647;-83
2022/06/22 01:12:40;;;;;;;;;;;29.50;39.80;;;;;;667385;29;1448;-90
2022/06/22 01:13:06;;;;;;;;;;;29.40;40.20;;;;;;667629;29;825;-96
2022/06/22 01:13:44;;;;;;;;;;;29.40;39.90;;;;;;667547;29;821;-96
2022/06/22 01:14:08;;;;;;;;;;;29.40;39.70;;;;;;667668;29;1027;-95
2022/06/22 01:14:31;;;;;;;;;;;29.40;39.40;;;;;;667469;29;1071;-95
2022/06/22 01:15:20;;;;;;;;;;;29.40;39.70;;;;;;667372;29;1065;-86
2022/06/22 01:15:48;;;;;;;;;;;29.40;39.50;;;;;;668484;29;1369;-93
2022/06/22 01:16:15;;;;;;;;;;;29.40;39.50;;;;;;670090;29;996;-92
2022/06/22 01:16:38;;;;;;;;;;;29.40;39.80;;;;;;669980;29;1332;-80
2022/06/22 01:17:00;;;;;;;;;;;29.50;41.60;;;;;;670178;29;876;-93
2022/06/22 01:17:34;;;;;;;;;;;29.50;40.20;;;;;;670205;29;1140;-93
2022/06/22 01:18:00;;;;;;;;;;;29.40;39.40;;;;;;668071;29;927;-93
2022/06/22 01:18:23;;;;;;;;;;;29.50;39.50;;;;;;667514;29;857;-92
2022/06/22 01:18:48;;;;;;;;;;;29.40;40.70;;;;;;667427;29;1200;-91
2022/06/22 01:19:11;;;;;;;;;;;29.40;39.70;;;;;;667501;29;964;-92
2022/06/22 01:19:32;;;;;;;;;;;29.40;38.90;;;;;;670290;29;1617;-93
2022/06/22 01:19:55;;;;;;;;;;;29.40;41.10;;;;;;670122;29;1314;-94
2022/06/22 01:20:28;;;;;;;;;;;29.40;39.50;;;;;;670088;29;891;-95
2022/06/22 01:21:04;;;;;;;;;;;29.40;39.70;;;;;;670020;29;949;-96
2022/06/22 01:21:28;;;;;;;;;;;29.40;39.00;;;;;;670194;29;859;-96
2022/06/22 01:21:54;;;;;;;;;;;29.40;39.60;;;;;;670328;29;872;-91
2022/06/22 01:22:27;;;;;;;;;;;29.40;39.10;;;;;;670028;29;914;-96
2022/06/22 01:23:05;;;;;;;;;;;29.40;39.20;;;;;;670125;29;900;-96
2022/06/22 01:23:28;;;;;;;;;;;29.40;39.00;;;;;;670068;29;885;-96
2022/06/22 01:23:49;;;;;;;;;;;29.40;38.60;;;;;;669996;29;1368;-94
2022/06/22 01:24:15;;;;;;;;;;;29.50;38.30;;;;;;670101;29;869;-96
2022/06/22 01:24:47;;;;;;;;;;;29.40;38.40;;;;;;670163;29;927;-96
2022/06/22 01:25:13;;;;;;;;;;;29.40;38.40;;;;;;670116;29;884;-87
2022/06/22 01:25:33;;;;;;;;;;;29.40;38.10;;;;;;670246;29;1104;-96
2022/06/22 01:26:05;;;;;;;;;;;29.50;38.20;;;;;;672574;29;990;-93
2022/06/22 01:26:34;;;;;;;;;;;29.40;37.80;;;;;;672659;29;793;-92
2022/06/22 01:27:13;;;;;;;;;;;29.50;38.20;;;;;;672525;29;1050;-93
2022/06/22 01:27:39;;;;;;;;;;;29.50;37.90;;;;;;672732;29;1247;-94
2022/06/22 01:28:00;;;;;;;;;;;29.50;38.10;;;;;;670165;29;939;-93
2022/06/22 01:28:21;;;;;;;;;;;29.50;38.50;;;;;;670030;29;813;-93
2022/06/22 01:28:50;;;;;;;;;;;29.50;38.50;;;;;;676448;29;1150;-94
2022/06/22 01:29:13;;;;;;;;;;;29.50;38.20;;;;;;677819;29;895;-93
2022/06/22 01:29:33;;;;;;;;;;;29.50;37.60;;;;;;678011;29;808;-95
2022/06/22 01:29:56;;;;;;;;;;;29.50;37.50;;;;;;679519;29;914;-93
2022/06/22 01:30:34;;;;;;;;;;;29.50;37.80;;;;;;680512;29;938;-95
2022/06/22 01:30:56;;;;;;;;;;;29.50;37.30;;;;;;680511;29;895;-93
2022/06/22 01:31:16;;;;;;;;;;;29.50;38.10;;;;;;680374;29;902;-93
2022/06/22 01:31:42;;;;;;;;;;;29.40;37.90;;;;;;680516;29;946;-94
2022/06/22 01:32:06;;;;;;;;;;;29.50;38.50;;;;;;680524;29;902;-93
2022/06/22 01:32:29;;;;;;;;;;;29.50;38.20;;;;;;677991;29;1202;-95
2022/06/22 01:32:49;;;;;;;;;;;29.50;37.50;;;;;;677813;29;840;-94
2022/06/22 01:33:19;;;;;;;;;;;29.50;37.30;;;;;;677731;29;832;-95
2022/06/22 01:33:41;;;;;;;;;;;29.50;37.10;;;;;;677713;29;1005;-96
2022/06/22 01:34:02;;;;;;;;;;;29.50;37.20;;;;;;677980;29;1079;-93
2022/06/22 01:34:24;;;;;;;;;;;29.50;37.20;;;;;;679841;29;855;-94
2022/06/22 01:34:47;;;;;;;;;;;29.50;37.10;;;;;;677795;29;1237;-95
2022/06/22 01:35:20;;;;;;;;;;;29.50;37.10;;;;;;677874;29;1214;-91
2022/06/22 01:35:41;;;;;;;;;;;29.50;36.80;;;;;;677812;29;777;-94
2022/06/22 01:36:07;;;;;;;;;;;29.50;37.00;;;;;;675410;29;1354;-94
2022/06/22 01:36:31;;;;;;;;;;;29.50;36.90;;;;;;675565;29;789;-94
2022/06/22 01:36:52;;;;;;;;;;;29.50;37.00;;;;;;675078;29;1341;-94
2022/06/22 01:37:15;;;;;;;;;;;29.50;37.00;;;;;;675504;29;1292;-93
2022/06/22 01:37:35;;;;;;;;;;;29.50;37.20;;;;;;676745;29;1308;-96
2022/06/22 01:37:56;;;;;;;;;;;29.50;37.30;;;;;;680143;29;1400;-94
2022/06/22 01:38:24;;;;;;;;;;;29.50;36.70;;;;;;683053;29;799;-94
2022/06/22 01:38:45;;;;;;;;;;;29.50;36.80;;;;;;684548;28;1340;-93
2022/06/22 01:39:06;;;;;;;;;;;29.60;37.60;;;;;;683996;28;1314;-96
2022/06/22 01:39:26;;;;;;;;;;;29.90;38.10;;;;;;684305;28;1289;-95
2022/06/22 01:39:47;;;;;;;;;;;29.50;38.10;;;;;;685586;28;1442;-95
2022/06/22 01:40:17;;;;;;;;;;;29.50;37.50;;;;;;683971;28;1258;-95
2022/06/22 01:40:45;;;;;;;;;;;29.50;37.30;;;;;;683089;29;997;-91
2022/06/22 01:41:09;;;;;;;;;;;29.50;37.40;;;;;;683127;29;886;-95
2022/06/22 01:41:34;;;;;;;;;;;29.50;36.70;;;;;;685132;28;1374;-95
2022/06/22 01:41:59;;;;;;;;;;;29.50;36.80;;;;;;685741;28;795;-95
2022/06/22 01:42:27;;;;;;;;;;;29.60;36.50;;;;;;682945;28;1977;-95
2022/06/22 01:43:04;;;;;;;;;;;29.50;36.60;;;;;;683068;29;792;-95
2022/06/22 01:43:28;;;;;;;;;;;28.70;36.10;;;;;;683091;28;997;-96
2022/06/22 01:43:56;;;;;;;;;;;29.60;36.70;;;;;;683013;29;851;-96
2022/06/22 01:44:39;;;;;;;;;;;29.50;36.30;;;;;;685591;28;875;-90
2022/06/22 01:45:02;;;;;;;;;;;29.50;37.80;;;;;;686279;28;1439;-94
2022/06/22 01:45:49;;;;;;;;;;;29.60;36.40;;;;;;685788;28;1239;-94
2022/06/22 01:46:32;;;;;;;;;;;29.50;36.40;;;;;;684317;28;1526;-93
2022/06/22 01:47:11;;;;;;;;;;;29.50;36.40;;;;;;686186;28;993;-96
2022/06/22 01:47:44;;;;;;;;;;;29.50;36.40;;;;;;686626;28;866;-94
2022/06/22 01:48:23;;;;;;;;;;;29.50;36.80;;;;;;686631;28;838;-95
2022/06/22 01:48:48;;;;;;;;;;;29.60;37.30;;;;;;686365;28;869;-96
2022/06/22 01:49:11;;;;;;;;;;;29.50;37.10;;;;;;686264;28;1001;-95
2022/06/22 01:49:34;;;;;;;;;;;29.60;36.50;;;;;;683538;29;1101;-93
2022/06/22 01:49:55;;;;;;;;;;;29.60;36.50;;;;;;683811;28;1166;-94
2022/06/22 01:50:21;;;;;;;;;;;29.50;36.10;;;;;;683574;29;910;-96
2022/06/22 01:50:46;;;;;;;;;;;29.50;36.60;;;;;;683558;29;831;-90
2022/06/22 01:51:20;;;;;;;;;;;29.50;36.30;;;;;;683530;29;1428;-90
2022/06/22 01:51:46;;;;;;;;;;;29.20;36.90;;;;;;683642;28;791;-94
2022/06/22 01:52:32;;;;;;;;;;;29.50;36.70;;;;;;680421;29;1239;-96
2022/06/22 01:52:55;;;;;;;;;;;29.50;36.60;;;;;;675662;29;1158;-94
2022/06/22 01:53:16;;;;;;;;;;;29.50;36.10;;;;;;677814;29;1128;-96
2022/06/22 01:53:39;;;;;;;;;;;29.50;36.20;;;;;;681021;29;1318;-96
2022/06/22 01:54:00;;;;;;;;;;;29.50;36.60;;;;;;683110;28;1193;-93
2022/06/22 01:54:25;;;;;;;;;;;29.50;37.00;;;;;;686191;28;878;-94
2022/06/22 01:54:50;;;;;;;;;;;29.50;37.70;;;;;;686222;28;853;-93
2022/06/22 01:55:16;;;;;;;;;;;29.50;36.60;;;;;;686384;28;850;-94
2022/06/22 01:55:40;;;;;;;;;;;29.50;36.20;;;;;;686356;28;945;-96
2022/06/22 01:56:09;;;;;;;;;;;29.50;36.30;;;;;;686162;28;1310;-93
2022/06/22 01:56:37;;;;;;;;;;;29.90;36.30;;;;;;686279;28;893;-94
2022/06/22 01:57:06;;;;;;;;;;;29.50;36.80;;;;;;686330;28;815;-94
2022/06/22 01:57:33;;;;;;;;;;;29.50;36.20;;;;;;686307;28;869;-95
2022/06/22 01:57:59;;;;;;;;;;;29.50;36.50;;;;;;683563;29;1202;-94
2022/06/22 01:58:19;;;;;;;;;;;29.50;36.20;;;;;;683383;29;858;-96
2022/06/22 01:58:52;;;;;;;;;;;29.50;37.70;;;;;;683651;29;921;-93
2022/06/22 01:59:19;;;;;;;;;;;29.50;36.80;;;;;;683367;28;1327;-93
2022/06/22 01:59:39;;;;;;;;;;;29.50;36.30;;;;;;683443;29;1284;-94
2022/06/22 02:00:05;;;;;;;;;;;29.50;36.80;;;;;;683689;29;1028;-91
2022/06/22 02:00:26;;;;;;;;;;;29.50;36.40;;;;;;683534;29;1092;-93
2022/06/22 02:00:49;;;;;;;;;;;29.50;37.20;;;;;;683757;29;830;-91
2022/06/22 02:01:25;;;;;;;;;;;30.70;37.50;;;;;;683614;29;858;-90
2022/06/22 02:01:46;;;;;;;;;;;29.50;36.40;;;;;;683665;29;827;-93
2022/06/22 02:02:12;;;;;;;;;;;29.50;36.40;;;;;;680561;29;1234;-87
2022/06/22 02:02:35;;;;;;;;;;;29.50;36.60;;;;;;678350;29;1968;-93
2022/06/22 02:02:58;;;;;;;;;;;29.50;36.70;;;;;;678195;29;1398;-87
2022/06/22 02:03:22;;;;;;;;;;;29.50;36.40;;;;;;678223;29;843;-93
2022/06/22 02:03:45;;;;;;;;;;;29.50;37.70;;;;;;678209;29;1204;-94
2022/06/22 02:04:13;;;;;;;;;;;29.50;36.60;;;;;;680889;29;1013;-94
2022/06/22 02:04:40;;;;;;;;;;;29.40;36.40;;;;;;683592;29;850;-94
2022/06/22 02:05:01;;;;;;;;;;;29.50;36.70;;;;;;681086;29;1270;-91
2022/06/22 02:05:42;;;;;;;;;;;29.50;36.70;;;;;;678535;29;1253;-89
2022/06/22 02:07:44;;;;;;;;;;;29.40;36.80;;;;;;682455;29;1151;-94
2022/06/22 02:08:11;;;;;;;;;;;29.40;36.40;;;;;;686439;28;834;-94
2022/06/22 02:08:38;;;;;;;;;;;29.40;36.50;;;;;;686345;28;831;-92
2022/06/22 02:09:02;;;;;;;;;;;29.40;36.30;;;;;;685670;28;1588;-96
2022/06/22 02:09:27;;;;;;;;;;;29.40;35.80;;;;;;686293;28;901;-93
2022/06/22 02:09:53;;;;;;;;;;;29.40;36.00;;;;;;686231;28;803;-93
2022/06/22 02:10:26;;;;;;;;;;;29.40;36.20;;;;;;683857;28;1348;-95
2022/06/22 02:10:50;;;;;;;;;;;29.40;36.20;;;;;;683594;29;783;-96
2022/06/22 02:11:16;;;;;;;;;;;29.40;36.20;;;;;;683478;29;903;-95
2022/06/22 02:11:42;;;;;;;;;;;29.40;35.90;;;;;;683828;28;1284;-93
2022/06/22 02:12:18;;;;;;;;;;;29.40;36.00;;;;;;682097;29;1303;-93
2022/06/22 02:13:08;;;;;;;;;;;29.40;36.30;;;;;;683467;29;839;-94
2022/06/22 02:13:34;;;;;;;;;;;29.40;36.00;;;;;;678489;29;900;-93
2022/06/22 02:13:59;;;;;;;;;;;29.40;35.70;;;;;;677033;29;1119;-94
2022/06/22 02:14:25;;;;;;;;;;;29.40;35.90;;;;;;675546;29;1371;-92
2022/06/22 02:14:52;;;;;;;;;;;29.40;36.20;;;;;;675642;29;836;-93
2022/06/22 02:15:18;;;;;;;;;;;29.40;36.00;;;;;;673382;29;840;-94
2022/06/22 02:15:38;;;;;;;;;;;29.40;35.80;;;;;;675918;29;897;-94
2022/06/22 02:15:59;;;;;;;;;;;29.40;35.40;;;;;;678316;29;1203;-95
2022/06/22 02:16:29;;;;;;;;;;;29.40;35.10;;;;;;680513;29;1232;-95
2022/06/22 02:16:49;;;;;;;;;;;29.40;35.10;;;;;;680926;29;859;-92
2022/06/22 02:17:12;;;;;;;;;;;29.40;35.50;;;;;;677829;29;1223;-91
2022/06/22 02:17:35;;;;;;;;;;;29.40;35.60;;;;;;678270;29;806;-94
2022/06/22 02:17:56;;;;;;;;;;;29.40;36.30;;;;;;678411;29;839;-95
2022/06/22 02:18:23;;;;;;;;;;;29.40;36.00;;;;;;677700;29;1257;-95
2022/06/22 02:18:56;;;;;;;;;;;29.40;35.80;;;;;;678314;29;958;-95
2022/06/22 02:19:18;;;;;;;;;;;29.40;36.00;;;;;;680789;29;1112;-88
2022/06/22 02:19:40;;;;;;;;;;;29.40;35.90;;;;;;680688;29;1347;-90
2022/06/22 02:20:21;;;;;;;;;;;29.40;35.00;;;;;;680665;29;1488;-94
2022/06/22 02:20:42;;;;;;;;;;;29.30;34.90;;;;;;680743;29;1102;-92
2022/06/22 02:21:30;;;;;;;;;;;29.30;35.30;;;;;;680868;29;792;-96
2022/06/22 02:21:52;;;;;;;;;;;29.40;34.70;;;;;;675227;29;1415;-89
2022/06/22 02:22:13;;;;;;;;;;;29.30;35.50;;;;;;675472;29;1398;-89
2022/06/22 02:22:34;;;;;;;;;;;27.50;34.50;;;;;;672788;29;1907;-88
2022/06/22 02:22:58;;;;;;;;;;;29.30;36.20;;;;;;672885;29;864;-88
2022/06/22 02:23:29;;;;;;;;;;;29.30;35.60;;;;;;672798;29;1218;-88
2022/06/22 02:23:55;;;;;;;;;;;29.30;35.30;;;;;;672765;29;1254;-88
2022/06/22 02:24:28;;;;;;;;;;;29.30;36.10;;;;;;670289;29;1236;-88
2022/06/22 02:24:48;;;;;;;;;;;29.30;35.90;;;;;;670086;29;1481;-87
2022/06/22 02:25:09;;;;;;;;;;;28.50;36.60;;;;;;669129;29;1393;-89
2022/06/22 02:25:31;;;;;;;;;;;29.30;38.00;;;;;;667905;29;789;-87
2022/06/22 02:26:06;;;;;;;;;;;29.40;37.60;;;;;;667673;29;1239;-89
2022/06/22 02:26:31;;;;;;;;;;;29.30;37.20;;;;;;670313;29;1357;-89
2022/06/22 02:26:57;;;;;;;;;;;29.30;37.30;;;;;;671471;29;1491;-89
2022/06/22 02:27:19;;;;;;;;;;;29.40;37.30;;;;;;672803;29;1265;-88
2022/06/22 02:27:40;;;;;;;;;;;29.30;37.40;;;;;;672813;29;1179;-88
2022/06/22 02:28:01;;;;;;;;;;;28.40;37.30;;;;;;672957;29;1155;-87
2022/06/22 02:28:22;;;;;;;;;;;29.40;37.80;;;;;;672930;29;860;-89
2022/06/22 02:28:43;;;;;;;;;;;29.30;38.10;;;;;;672747;29;800;-88
2022/06/22 02:29:04;;;;;;;;;;;29.40;38.60;;;;;;672300;29;1326;-88
2022/06/22 02:29:26;;;;;;;;;;;29.40;38.40;;;;;;672796;29;1312;-88
2022/06/22 02:29:48;;;;;;;;;;;29.40;39.00;;;;;;672806;29;1276;-88
2022/06/22 02:30:09;;;;;;;;;;;29.30;38.40;;;;;;672882;29;1128;-89
2022/06/22 02:30:29;;;;;;;;;;;29.40;38.30;;;;;;672998;29;1219;-88
2022/06/22 02:30:51;;;;;;;;;;;29.40;39.20;;;;;;670885;29;1340;-88
2022/06/22 02:31:11;;;;;;;;;;;27.10;37.20;;;;;;672161;29;1313;-88
2022/06/22 02:31:32;;;;;;;;;;;29.40;39.40;;;;;;672965;29;1167;-89
2022/06/22 02:31:55;;;;;;;;;;;29.40;40.00;;;;;;672688;29;1116;-94
2022/06/22 02:32:17;;;;;;;;;;;29.30;38.00;;;;;;673678;29;1218;-95
2022/06/22 02:32:42;;;;;;;;;;;29.40;38.40;;;;;;672833;29;1351;-94
2022/06/22 02:33:04;;;;;;;;;;;29.40;36.80;;;;;;671796;29;927;-96
2022/06/22 02:33:25;;;;;;;;;;;29.40;36.10;;;;;;669033;29;923;-95
2022/06/22 02:33:50;;;;;;;;;;;29.40;36.40;;;;;;669442;29;968;-96
2022/06/22 02:34:13;;;;;;;;;;;29.40;36.80;;;;;;672269;29;1386;-95
2022/06/22 02:34:35;;;;;;;;;;;29.30;37.60;;;;;;675606;29;884;-96
2022/06/22 02:34:56;;;;;;;;;;;29.40;38.00;;;;;;675643;29;882;-96
2022/06/22 02:35:17;;;;;;;;;;;29.30;38.80;;;;;;675623;29;848;-94
2022/06/22 02:35:38;;;;;;;;;;;29.40;38.60;;;;;;675702;29;816;-86
2022/06/22 02:35:59;;;;;;;;;;;29.40;37.10;;;;;;675662;29;1099;-95
2022/06/22 02:36:21;;;;;;;;;;;29.30;37.10;;;;;;675785;29;796;-93
2022/06/22 02:36:44;;;;;;;;;;;29.40;37.40;;;;;;675660;29;776;-88
2022/06/22 02:37:07;;;;;;;;;;;29.40;36.90;;;;;;673031;29;1082;-96
2022/06/22 02:37:47;;;;;;;;;;;29.40;37.10;;;;;;674091;29;927;-93
2022/06/22 02:38:11;;;;;;;;;;;29.40;37.50;;;;;;671023;29;1335;-96
2022/06/22 02:38:34;;;;;;;;;;;29.40;36.90;;;;;;671889;29;911;-92
2022/06/22 02:38:56;;;;;;;;;;;29.40;36.90;;;;;;671457;29;1274;-96
2022/06/22 02:39:18;;;;;;;;;;;29.40;36.80;;;;;;673675;29;1050;-96
2022/06/22 02:40:03;;;;;;;;;;;29.40;36.80;;;;;;696678;23;2717;-94
2022/06/22 02:40:25;;;;;;;;;;;29.40;37.00;;;;;;688531;28;1434;-96
2022/06/22 02:44:29;;;;;;;;;;;29.50;36.30;;;;;;694045;28;759;-96
2022/06/22 02:44:50;;;;;;;;;;;29.40;36.00;;;;;;692246;28;1214;-84